sensor_id;sensor_type;location;lat;lon;timestamp;P1;durP1;ratioP1;P2;durP2;ratioP2
15102;SDS011;7652;53.584;9.998;2023-08-31T00:03:04;6.67;;;6.07;;
15102;SDS011;7652;53.584;9.998;2023-08-31T00:06:25;6.70;;;6.10;;
15102;SDS011;7652;53.584;9.998;2023-08-31T00:09:47;6.40;;;5.90;;
15102;SDS011;7652;53.584;9.998;2023-08-31T00:13:08;6.67;;;6.07;;
15102;SDS011;7652;53.584;9.998;2023-08-31T00:16:31;6.97;;;6.33;;
15102;SDS011;7652;53.584;9.998;2023-08-31T00:19:53;6.67;;;6.10;;
15102;SDS011;7652;53.584;9.998;2023-08-31T00:23:15;6.47;;;5.73;;
15102;SDS011;7652;53.584;9.998;2023-08-31T00:26:36;6.30;;;5.60;;
15102;SDS011;7652;53.584;9.998;2023-08-31T00:30:00;6.90;;;6.20;;
15102;SDS011;7652;53.584;9.998;2023-08-31T00:33:24;6.87;;;5.73;;
15102;SDS011;7652;53.584;9.998;2023-08-31T00:36:47;5.67;;;5.20;;
15102;SDS011;7652;53.584;9.998;2023-08-31T00:40:09;5.60;;;5.10;;
15102;SDS011;7652;53.584;9.998;2023-08-31T00:43:34;6.03;;;5.53;;
15102;SDS011;7652;53.584;9.998;2023-08-31T00:46:55;5.57;;;5.07;;
15102;SDS011;7652;53.584;9.998;2023-08-31T00:50:18;6.10;;;5.50;;
15102;SDS011;7652;53.584;9.998;2023-08-31T00:53:40;5.53;;;5.03;;
15102;SDS011;7652;53.584;9.998;2023-08-31T00:57:02;5.57;;;5.13;;
15102;SDS011;7652;53.584;9.998;2023-08-31T01:00:24;5.57;;;5.07;;
15102;SDS011;7652;53.584;9.998;2023-08-31T01:03:56;5.77;;;5.20;;
15102;SDS011;7652;53.584;9.998;2023-08-31T01:07:38;5.50;;;5.00;;
15102;SDS011;7652;53.584;9.998;2023-08-31T01:11:08;5.37;;;4.67;;
15102;SDS011;7652;53.584;9.998;2023-08-31T01:14:42;7.03;;;5.20;;
15102;SDS011;7652;53.584;9.998;2023-08-31T01:18:07;5.87;;;4.90;;
15102;SDS011;7652;53.584;9.998;2023-08-31T01:21:33;5.43;;;4.93;;
15102;SDS011;7652;53.584;9.998;2023-08-31T01:24:59;5.50;;;5.00;;
15102;SDS011;7652;53.584;9.998;2023-08-31T01:28:24;5.80;;;5.20;;
15102;SDS011;7652;53.584;9.998;2023-08-31T01:31:46;5.70;;;5.00;;
15102;SDS011;7652;53.584;9.998;2023-08-31T01:35:07;5.30;;;4.80;;
15102;SDS011;7652;53.584;9.998;2023-08-31T01:38:30;6.73;;;4.87;;
15102;SDS011;7652;53.584;9.998;2023-08-31T01:41:56;5.57;;;5.07;;
15102;SDS011;7652;53.584;9.998;2023-08-31T01:45:22;6.47;;;4.73;;
15102;SDS011;7652;53.584;9.998;2023-08-31T01:48:45;5.53;;;5.03;;
15102;SDS011;7652;53.584;9.998;2023-08-31T01:52:06;5.47;;;5.00;;
15102;SDS011;7652;53.584;9.998;2023-08-31T01:55:28;5.50;;;4.90;;
15102;SDS011;7652;53.584;9.998;2023-08-31T01:58:51;5.53;;;5.10;;
15102;SDS011;7652;53.584;9.998;2023-08-31T02:02:12;6.73;;;5.20;;
15102;SDS011;7652;53.584;9.998;2023-08-31T02:05:34;5.30;;;4.77;;
15102;SDS011;7652;53.584;9.998;2023-08-31T02:08:56;5.50;;;4.70;;
15102;SDS011;7652;53.584;9.998;2023-08-31T02:12:17;6.93;;;5.07;;
15102;SDS011;7652;53.584;9.998;2023-08-31T02:15:40;7.30;;;5.33;;
15102;SDS011;7652;53.584;9.998;2023-08-31T02:19:02;6.33;;;5.03;;
15102;SDS011;7652;53.584;9.998;2023-08-31T02:22:24;5.80;;;5.20;;
15102;SDS011;7652;53.584;9.998;2023-08-31T02:25:45;9.93;;;5.17;;
15102;SDS011;7652;53.584;9.998;2023-08-31T02:29:06;5.73;;;4.80;;
15102;SDS011;7652;53.584;9.998;2023-08-31T02:32:29;5.83;;;5.33;;
15102;SDS011;7652;53.584;9.998;2023-08-31T02:35:50;6.03;;;4.77;;
15102;SDS011;7652;53.584;9.998;2023-08-31T02:39:12;6.47;;;5.30;;
15102;SDS011;7652;53.584;9.998;2023-08-31T02:42:33;6.40;;;4.60;;
15102;SDS011;7652;53.584;9.998;2023-08-31T02:45:58;7.83;;;5.03;;
15102;SDS011;7652;53.584;9.998;2023-08-31T02:49:22;5.40;;;4.90;;
15102;SDS011;7652;53.584;9.998;2023-08-31T02:52:44;5.60;;;4.60;;
15102;SDS011;7652;53.584;9.998;2023-08-31T02:56:05;6.63;;;4.23;;
15102;SDS011;7652;53.584;9.998;2023-08-31T02:59:27;6.70;;;4.30;;
15102;SDS011;7652;53.584;9.998;2023-08-31T03:02:48;7.53;;;5.10;;
15102;SDS011;7652;53.584;9.998;2023-08-31T03:06:13;6.30;;;4.43;;
15102;SDS011;7652;53.584;9.998;2023-08-31T03:09:35;4.80;;;4.30;;
15102;SDS011;7652;53.584;9.998;2023-08-31T03:12:58;4.57;;;4.17;;
15102;SDS011;7652;53.584;9.998;2023-08-31T03:16:20;5.63;;;4.20;;
15102;SDS011;7652;53.584;9.998;2023-08-31T03:19:41;5.27;;;4.30;;
15102;SDS011;7652;53.584;9.998;2023-08-31T03:23:04;4.63;;;4.17;;
15102;SDS011;7652;53.584;9.998;2023-08-31T03:26:26;4.60;;;4.10;;
15102;SDS011;7652;53.584;9.998;2023-08-31T03:29:48;4.77;;;3.93;;
15102;SDS011;7652;53.584;9.998;2023-08-31T03:33:09;4.47;;;4.07;;
15102;SDS011;7652;53.584;9.998;2023-08-31T03:36:31;4.63;;;3.80;;
15102;SDS011;7652;53.584;9.998;2023-08-31T03:39:54;4.10;;;3.70;;
15102;SDS011;7652;53.584;9.998;2023-08-31T03:43:16;4.00;;;3.60;;
15102;SDS011;7652;53.584;9.998;2023-08-31T03:46:37;5.20;;;3.53;;
15102;SDS011;7652;53.584;9.998;2023-08-31T03:49:58;5.03;;;3.17;;
15102;SDS011;7652;53.584;9.998;2023-08-31T03:53:19;3.67;;;3.30;;
15102;SDS011;7652;53.584;9.998;2023-08-31T03:56:42;4.13;;;3.23;;
15102;SDS011;7652;53.584;9.998;2023-08-31T04:00:04;3.93;;;3.40;;
15102;SDS011;7652;53.584;9.998;2023-08-31T04:03:29;4.03;;;3.33;;
15102;SDS011;7652;53.584;9.998;2023-08-31T04:06:50;3.80;;;3.43;;
15102;SDS011;7652;53.584;9.998;2023-08-31T04:10:12;8.27;;;3.37;;
15102;SDS011;7652;53.584;9.998;2023-08-31T04:13:35;5.07;;;3.17;;
15102;SDS011;7652;53.584;9.998;2023-08-31T04:16:56;3.33;;;2.90;;
15102;SDS011;7652;53.584;9.998;2023-08-31T04:20:18;3.43;;;2.87;;
15102;SDS011;7652;53.584;9.998;2023-08-31T04:23:39;4.27;;;2.77;;
15102;SDS011;7652;53.584;9.998;2023-08-31T04:27:01;4.77;;;2.90;;
15102;SDS011;7652;53.584;9.998;2023-08-31T04:30:24;5.17;;;3.20;;
15102;SDS011;7652;53.584;9.998;2023-08-31T04:33:46;4.10;;;2.60;;
15102;SDS011;7652;53.584;9.998;2023-08-31T04:37:08;3.70;;;3.10;;
15102;SDS011;7652;53.584;9.998;2023-08-31T04:40:29;4.53;;;2.90;;
15102;SDS011;7652;53.584;9.998;2023-08-31T04:43:51;5.97;;;2.97;;
15102;SDS011;7652;53.584;9.998;2023-08-31T04:47:14;6.23;;;2.97;;
15102;SDS011;7652;53.584;9.998;2023-08-31T04:50:35;4.73;;;2.93;;
15102;SDS011;7652;53.584;9.998;2023-08-31T04:53:57;3.47;;;3.13;;
15102;SDS011;7652;53.584;9.998;2023-08-31T04:57:18;3.80;;;3.40;;
15102;SDS011;7652;53.584;9.998;2023-08-31T05:00:40;6.60;;;3.37;;
15102;SDS011;7652;53.584;9.998;2023-08-31T05:04:03;6.07;;;3.50;;
15102;SDS011;7652;53.584;9.998;2023-08-31T05:07:25;3.43;;;3.10;;
15102;SDS011;7652;53.584;9.998;2023-08-31T05:10:47;4.03;;;3.00;;
15102;SDS011;7652;53.584;9.998;2023-08-31T05:14:08;8.40;;;3.20;;
15102;SDS011;7652;53.584;9.998;2023-08-31T05:17:29;5.10;;;3.57;;
15102;SDS011;7652;53.584;9.998;2023-08-31T05:20:52;3.57;;;2.80;;
15102;SDS011;7652;53.584;9.998;2023-08-31T05:24:14;5.53;;;3.53;;
15102;SDS011;7652;53.584;9.998;2023-08-31T05:27:35;6.23;;;3.30;;
15102;SDS011;7652;53.584;9.998;2023-08-31T05:30:57;4.43;;;3.40;;
15102;SDS011;7652;53.584;9.998;2023-08-31T05:34:20;3.37;;;2.93;;
15102;SDS011;7652;53.584;9.998;2023-08-31T05:37:44;7.37;;;3.30;;
15102;SDS011;7652;53.584;9.998;2023-08-31T05:41:06;5.50;;;3.17;;
15102;SDS011;7652;53.584;9.998;2023-08-31T05:44:28;4.53;;;3.20;;
15102;SDS011;7652;53.584;9.998;2023-08-31T05:47:49;5.30;;;3.27;;
15102;SDS011;7652;53.584;9.998;2023-08-31T05:51:11;4.87;;;3.33;;
15102;SDS011;7652;53.584;9.998;2023-08-31T05:54:34;6.73;;;3.23;;
15102;SDS011;7652;53.584;9.998;2023-08-31T05:57:55;4.27;;;2.97;;
15102;SDS011;7652;53.584;9.998;2023-08-31T06:01:16;4.93;;;3.07;;
15102;SDS011;7652;53.584;9.998;2023-08-31T06:04:38;3.97;;;2.67;;
15102;SDS011;7652;53.584;9.998;2023-08-31T06:07:59;16.80;;;3.60;;
15102;SDS011;7652;53.584;9.998;2023-08-31T06:11:22;5.83;;;2.97;;
15102;SDS011;7652;53.584;9.998;2023-08-31T06:14:43;5.40;;;3.00;;
15102;SDS011;7652;53.584;9.998;2023-08-31T06:18:05;4.33;;;2.67;;
15102;SDS011;7652;53.584;9.998;2023-08-31T06:21:27;4.27;;;2.80;;
15102;SDS011;7652;53.584;9.998;2023-08-31T06:24:49;3.43;;;2.90;;
15102;SDS011;7652;53.584;9.998;2023-08-31T06:28:13;6.60;;;3.30;;
15102;SDS011;7652;53.584;9.998;2023-08-31T06:31:34;4.03;;;2.80;;
15102;SDS011;7652;53.584;9.998;2023-08-31T06:34:56;5.60;;;3.03;;
15102;SDS011;7652;53.584;9.998;2023-08-31T06:38:17;4.90;;;2.53;;
15102;SDS011;7652;53.584;9.998;2023-08-31T06:41:38;2.73;;;2.53;;
15102;SDS011;7652;53.584;9.998;2023-08-31T06:45:01;3.87;;;2.70;;
15102;SDS011;7652;53.584;9.998;2023-08-31T06:48:23;5.23;;;2.50;;
15102;SDS011;7652;53.584;9.998;2023-08-31T06:51:44;3.77;;;2.73;;
15102;SDS011;7652;53.584;9.998;2023-08-31T06:55:06;5.97;;;2.70;;
15102;SDS011;7652;53.584;9.998;2023-08-31T06:58:31;5.87;;;3.10;;
15102;SDS011;7652;53.584;9.998;2023-08-31T07:01:53;3.63;;;2.80;;
15102;SDS011;7652;53.584;9.998;2023-08-31T07:05:14;13.83;;;3.60;;
15102;SDS011;7652;53.584;9.998;2023-08-31T07:08:36;5.37;;;2.40;;
15102;SDS011;7652;53.584;9.998;2023-08-31T07:12:00;5.10;;;2.67;;
15102;SDS011;7652;53.584;9.998;2023-08-31T07:15:22;4.13;;;2.70;;
15102;SDS011;7652;53.584;9.998;2023-08-31T07:18:45;4.67;;;2.63;;
15102;SDS011;7652;53.584;9.998;2023-08-31T07:22:06;4.53;;;2.00;;
15102;SDS011;7652;53.584;9.998;2023-08-31T07:25:27;5.57;;;2.23;;
15102;SDS011;7652;53.584;9.998;2023-08-31T07:28:49;8.03;;;3.40;;
15102;SDS011;7652;53.584;9.998;2023-08-31T07:32:11;8.27;;;2.83;;
15102;SDS011;7652;53.584;9.998;2023-08-31T07:35:33;3.00;;;2.30;;
15102;SDS011;7652;53.584;9.998;2023-08-31T07:38:55;5.83;;;1.77;;
15102;SDS011;7652;53.584;9.998;2023-08-31T07:42:17;2.47;;;1.60;;
15102;SDS011;7652;53.584;9.998;2023-08-31T07:45:39;3.23;;;1.53;;
15102;SDS011;7652;53.584;9.998;2023-08-31T07:49:01;4.40;;;2.23;;
15102;SDS011;7652;53.584;9.998;2023-08-31T07:52:25;3.20;;;1.73;;
15102;SDS011;7652;53.584;9.998;2023-08-31T07:55:53;5.33;;;1.73;;
15102;SDS011;7652;53.584;9.998;2023-08-31T07:59:16;5.23;;;1.77;;
15102;SDS011;7652;53.584;9.998;2023-08-31T08:02:38;3.67;;;1.60;;
15102;SDS011;7652;53.584;9.998;2023-08-31T08:06:00;2.07;;;1.67;;
15102;SDS011;7652;53.584;9.998;2023-08-31T08:09:24;3.40;;;2.03;;
15102;SDS011;7652;53.584;9.998;2023-08-31T08:12:46;3.17;;;1.70;;
15102;SDS011;7652;53.584;9.998;2023-08-31T08:16:07;2.33;;;1.80;;
15102;SDS011;7652;53.584;9.998;2023-08-31T08:19:29;2.60;;;1.97;;
15102;SDS011;7652;53.584;9.998;2023-08-31T08:22:50;2.47;;;1.73;;
15102;SDS011;7652;53.584;9.998;2023-08-31T08:26:14;3.57;;;1.93;;
15102;SDS011;7652;53.584;9.998;2023-08-31T08:29:35;2.67;;;1.70;;
15102;SDS011;7652;53.584;9.998;2023-08-31T08:32:57;4.40;;;1.87;;
15102;SDS011;7652;53.584;9.998;2023-08-31T08:36:18;3.20;;;1.57;;
15102;SDS011;7652;53.584;9.998;2023-08-31T08:39:40;3.43;;;1.70;;
15102;SDS011;7652;53.584;9.998;2023-08-31T08:43:04;2.37;;;1.30;;
15102;SDS011;7652;53.584;9.998;2023-08-31T08:46:28;2.57;;;1.40;;
15102;SDS011;7652;53.584;9.998;2023-08-31T08:49:51;3.47;;;1.77;;
15102;SDS011;7652;53.584;9.998;2023-08-31T08:53:14;4.07;;;1.60;;
15102;SDS011;7652;53.584;9.998;2023-08-31T08:56:36;3.07;;;1.47;;
15102;SDS011;7652;53.584;9.998;2023-08-31T08:59:59;3.73;;;1.70;;
15102;SDS011;7652;53.584;9.998;2023-08-31T09:03:22;3.90;;;1.97;;
15102;SDS011;7652;53.584;9.998;2023-08-31T09:06:44;4.13;;;1.90;;
15102;SDS011;7652;53.584;9.998;2023-08-31T09:10:06;3.23;;;1.37;;
15102;SDS011;7652;53.584;9.998;2023-08-31T09:13:28;3.57;;;1.80;;
15102;SDS011;7652;53.584;9.998;2023-08-31T09:16:52;2.93;;;1.60;;
15102;SDS011;7652;53.584;9.998;2023-08-31T09:20:14;4.17;;;2.03;;
15102;SDS011;7652;53.584;9.998;2023-08-31T09:23:35;4.60;;;1.90;;
15102;SDS011;7652;53.584;9.998;2023-08-31T09:26:57;4.43;;;2.00;;
15102;SDS011;7652;53.584;9.998;2023-08-31T09:30:19;4.00;;;1.90;;
15102;SDS011;7652;53.584;9.998;2023-08-31T09:33:50;2.67;;;1.90;;
15102;SDS011;7652;53.584;9.998;2023-08-31T09:37:15;3.77;;;1.70;;
15102;SDS011;7652;53.584;9.998;2023-08-31T09:40:38;3.17;;;2.00;;
15102;SDS011;7652;53.584;9.998;2023-08-31T09:44:04;4.53;;;2.07;;
15102;SDS011;7652;53.584;9.998;2023-08-31T09:47:35;3.17;;;2.17;;
15102;SDS011;7652;53.584;9.998;2023-08-31T09:50:59;2.80;;;1.80;;
15102;SDS011;7652;53.584;9.998;2023-08-31T09:54:24;2.73;;;1.47;;
15102;SDS011;7652;53.584;9.998;2023-08-31T09:57:48;2.30;;;1.67;;
15102;SDS011;7652;53.584;9.998;2023-08-31T10:01:28;3.80;;;1.70;;
15102;SDS011;7652;53.584;9.998;2023-08-31T10:04:49;2.60;;;1.60;;
15102;SDS011;7652;53.584;9.998;2023-08-31T10:08:14;3.83;;;1.90;;
15102;SDS011;7652;53.584;9.998;2023-08-31T10:11:36;6.47;;;2.10;;
15102;SDS011;7652;53.584;9.998;2023-08-31T10:14:58;3.10;;;2.23;;
15102;SDS011;7652;53.584;9.998;2023-08-31T10:18:20;3.10;;;1.93;;
15102;SDS011;7652;53.584;9.998;2023-08-31T10:21:43;3.00;;;2.40;;
15102;SDS011;7652;53.584;9.998;2023-08-31T10:25:07;2.97;;;2.20;;
15102;SDS011;7652;53.584;9.998;2023-08-31T10:28:30;2.80;;;2.37;;
15102;SDS011;7652;53.584;9.998;2023-08-31T10:32:00;2.20;;;2.00;;
15102;SDS011;7652;53.584;9.998;2023-08-31T10:35:23;2.07;;;1.80;;
15102;SDS011;7652;53.584;9.998;2023-08-31T10:39:04;3.50;;;2.70;;
15102;SDS011;7652;53.584;9.998;2023-08-31T10:42:29;2.33;;;1.70;;
15102;SDS011;7652;53.584;9.998;2023-08-31T10:45:51;2.70;;;2.10;;
15102;SDS011;7652;53.584;9.998;2023-08-31T10:49:13;2.37;;;1.93;;
15102;SDS011;7652;53.584;9.998;2023-08-31T10:52:36;3.73;;;2.13;;
15102;SDS011;7652;53.584;9.998;2023-08-31T10:56:05;3.87;;;2.20;;
15102;SDS011;7652;53.584;9.998;2023-08-31T10:59:41;2.33;;;1.70;;
15102;SDS011;7652;53.584;9.998;2023-08-31T11:03:04;2.37;;;1.80;;
15102;SDS011;7652;53.584;9.998;2023-08-31T11:06:26;2.50;;;1.97;;
15102;SDS011;7652;53.584;9.998;2023-08-31T11:09:50;2.10;;;1.50;;
15102;SDS011;7652;53.584;9.998;2023-08-31T11:13:15;2.20;;;1.50;;
15102;SDS011;7652;53.584;9.998;2023-08-31T11:16:39;3.90;;;1.37;;
15102;SDS011;7652;53.584;9.998;2023-08-31T11:20:01;2.00;;;1.10;;
15102;SDS011;7652;53.584;9.998;2023-08-31T11:23:25;1.77;;;1.27;;
15102;SDS011;7652;53.584;9.998;2023-08-31T11:26:47;2.80;;;1.07;;
15102;SDS011;7652;53.584;9.998;2023-08-31T11:30:13;4.00;;;1.40;;
15102;SDS011;7652;53.584;9.998;2023-08-31T11:33:37;1.87;;;1.10;;
15102;SDS011;7652;53.584;9.998;2023-08-31T11:36:58;1.37;;;0.90;;
15102;SDS011;7652;53.584;9.998;2023-08-31T11:40:20;1.20;;;0.90;;
15102;SDS011;7652;53.584;9.998;2023-08-31T11:43:41;3.17;;;1.00;;
15102;SDS011;7652;53.584;9.998;2023-08-31T11:47:03;2.53;;;1.17;;
15102;SDS011;7652;53.584;9.998;2023-08-31T11:50:27;3.57;;;0.90;;
15102;SDS011;7652;53.584;9.998;2023-08-31T11:53:49;1.27;;;0.90;;
15102;SDS011;7652;53.584;9.998;2023-08-31T11:57:11;1.70;;;1.20;;
15102;SDS011;7652;53.584;9.998;2023-08-31T12:00:34;2.80;;;0.97;;
15102;SDS011;7652;53.584;9.998;2023-08-31T12:03:55;1.70;;;0.97;;
15102;SDS011;7652;53.584;9.998;2023-08-31T12:07:18;2.67;;;0.70;;
15102;SDS011;7652;53.584;9.998;2023-08-31T12:10:40;2.10;;;0.80;;
15102;SDS011;7652;53.584;9.998;2023-08-31T12:14:03;3.17;;;0.80;;
15102;SDS011;7652;53.584;9.998;2023-08-31T12:17:25;1.47;;;0.90;;
15102;SDS011;7652;53.584;9.998;2023-08-31T12:20:47;1.20;;;0.70;;
15102;SDS011;7652;53.584;9.998;2023-08-31T12:24:12;1.67;;;0.70;;
15102;SDS011;7652;53.584;9.998;2023-08-31T12:27:36;1.03;;;0.90;;
15102;SDS011;7652;53.584;9.998;2023-08-31T12:30:58;1.37;;;1.00;;
15102;SDS011;7652;53.584;9.998;2023-08-31T12:34:19;1.63;;;0.83;;
15102;SDS011;7652;53.584;9.998;2023-08-31T12:37:41;1.97;;;0.97;;
15102;SDS011;7652;53.584;9.998;2023-08-31T12:41:03;2.17;;;0.97;;
15102;SDS011;7652;53.584;9.998;2023-08-31T12:44:25;4.33;;;1.13;;
15102;SDS011;7652;53.584;9.998;2023-08-31T12:47:46;4.13;;;1.17;;
15102;SDS011;7652;53.584;9.998;2023-08-31T12:51:08;2.47;;;0.90;;
15102;SDS011;7652;53.584;9.998;2023-08-31T12:54:29;2.73;;;0.87;;
15102;SDS011;7652;53.584;9.998;2023-08-31T12:57:52;2.53;;;0.80;;
15102;SDS011;7652;53.584;9.998;2023-08-31T13:01:13;0.70;;;0.60;;
15102;SDS011;7652;53.584;9.998;2023-08-31T13:04:35;0.83;;;0.73;;
15102;SDS011;7652;53.584;9.998;2023-08-31T13:07:59;1.10;;;1.00;;
15102;SDS011;7652;53.584;9.998;2023-08-31T13:11:20;1.60;;;0.90;;
15102;SDS011;7652;53.584;9.998;2023-08-31T13:14:45;3.17;;;1.13;;
15102;SDS011;7652;53.584;9.998;2023-08-31T13:18:06;2.07;;;1.10;;
15102;SDS011;7652;53.584;9.998;2023-08-31T13:21:28;0.80;;;0.80;;
15102;SDS011;7652;53.584;9.998;2023-08-31T13:24:49;1.33;;;0.77;;
15102;SDS011;7652;53.584;9.998;2023-08-31T13:28:11;1.03;;;0.73;;
15102;SDS011;7652;53.584;9.998;2023-08-31T13:31:35;1.17;;;0.80;;
15102;SDS011;7652;53.584;9.998;2023-08-31T13:34:57;1.70;;;0.60;;
15102;SDS011;7652;53.584;9.998;2023-08-31T13:38:18;1.37;;;0.80;;
15102;SDS011;7652;53.584;9.998;2023-08-31T13:41:39;1.13;;;0.97;;
15102;SDS011;7652;53.584;9.998;2023-08-31T13:45:01;0.77;;;0.73;;
15102;SDS011;7652;53.584;9.998;2023-08-31T13:48:24;1.63;;;0.90;;
15102;SDS011;7652;53.584;9.998;2023-08-31T13:51:46;1.30;;;0.90;;
15102;SDS011;7652;53.584;9.998;2023-08-31T13:55:07;2.33;;;1.00;;
15102;SDS011;7652;53.584;9.998;2023-08-31T13:58:29;1.13;;;0.77;;
15102;SDS011;7652;53.584;9.998;2023-08-31T14:01:50;0.73;;;0.73;;
15102;SDS011;7652;53.584;9.998;2023-08-31T14:05:13;3.23;;;0.70;;
15102;SDS011;7652;53.584;9.998;2023-08-31T14:08:35;0.93;;;0.53;;
15102;SDS011;7652;53.584;9.998;2023-08-31T14:11:56;2.13;;;0.80;;
15102;SDS011;7652;53.584;9.998;2023-08-31T14:15:18;4.23;;;0.83;;
15102;SDS011;7652;53.584;9.998;2023-08-31T14:18:39;1.70;;;0.60;;
15102;SDS011;7652;53.584;9.998;2023-08-31T14:22:02;0.77;;;0.60;;
15102;SDS011;7652;53.584;9.998;2023-08-31T14:25:24;1.90;;;0.83;;
15102;SDS011;7652;53.584;9.998;2023-08-31T14:28:46;2.70;;;0.50;;
15102;SDS011;7652;53.584;9.998;2023-08-31T14:32:07;1.40;;;0.80;;
15102;SDS011;7652;53.584;9.998;2023-08-31T14:35:28;1.20;;;0.70;;
15102;SDS011;7652;53.584;9.998;2023-08-31T14:38:51;1.23;;;0.50;;
15102;SDS011;7652;53.584;9.998;2023-08-31T14:42:12;0.50;;;0.50;;
15102;SDS011;7652;53.584;9.998;2023-08-31T14:45:36;1.10;;;0.60;;
15102;SDS011;7652;53.584;9.998;2023-08-31T14:48:59;1.97;;;0.70;;
15102;SDS011;7652;53.584;9.998;2023-08-31T14:52:21;1.70;;;0.60;;
15102;SDS011;7652;53.584;9.998;2023-08-31T14:55:48;1.17;;;0.80;;
15102;SDS011;7652;53.584;9.998;2023-08-31T14:59:10;1.00;;;0.50;;
15102;SDS011;7652;53.584;9.998;2023-08-31T15:02:32;1.47;;;0.60;;
15102;SDS011;7652;53.584;9.998;2023-08-31T15:05:53;0.77;;;0.63;;
15102;SDS011;7652;53.584;9.998;2023-08-31T15:09:14;0.50;;;0.50;;
15102;SDS011;7652;53.584;9.998;2023-08-31T15:12:37;0.50;;;0.50;;
15102;SDS011;7652;53.584;9.998;2023-08-31T15:15:59;0.63;;;0.53;;
15102;SDS011;7652;53.584;9.998;2023-08-31T15:19:21;1.53;;;0.53;;
15102;SDS011;7652;53.584;9.998;2023-08-31T15:22:42;2.27;;;0.87;;
15102;SDS011;7652;53.584;9.998;2023-08-31T15:26:04;1.33;;;0.63;;
15102;SDS011;7652;53.584;9.998;2023-08-31T15:29:26;1.43;;;0.80;;
15102;SDS011;7652;53.584;9.998;2023-08-31T15:32:48;1.23;;;0.70;;
15102;SDS011;7652;53.584;9.998;2023-08-31T15:36:10;1.30;;;0.80;;
15102;SDS011;7652;53.584;9.998;2023-08-31T15:39:31;1.10;;;0.63;;
15102;SDS011;7652;53.584;9.998;2023-08-31T15:42:53;1.37;;;0.60;;
15102;SDS011;7652;53.584;9.998;2023-08-31T15:46:16;0.40;;;0.40;;
15102;SDS011;7652;53.584;9.998;2023-08-31T15:49:39;0.90;;;0.70;;
15102;SDS011;7652;53.584;9.998;2023-08-31T15:53:02;2.87;;;0.80;;
15102;SDS011;7652;53.584;9.998;2023-08-31T15:56:23;1.20;;;0.67;;
15102;SDS011;7652;53.584;9.998;2023-08-31T15:59:45;1.37;;;0.60;;
15102;SDS011;7652;53.584;9.998;2023-08-31T16:03:09;1.30;;;0.70;;
15102;SDS011;7652;53.584;9.998;2023-08-31T16:06:30;2.27;;;0.67;;
15102;SDS011;7652;53.584;9.998;2023-08-31T16:09:55;1.17;;;1.07;;
15102;SDS011;7652;53.584;9.998;2023-08-31T16:13:17;1.63;;;0.80;;
15102;SDS011;7652;53.584;9.998;2023-08-31T16:16:39;3.53;;;1.60;;
15102;SDS011;7652;53.584;9.998;2023-08-31T16:20:04;5.13;;;2.37;;
15102;SDS011;7652;53.584;9.998;2023-08-31T16:23:28;2.33;;;0.90;;
15102;SDS011;7652;53.584;9.998;2023-08-31T16:26:49;1.97;;;0.80;;
15102;SDS011;7652;53.584;9.998;2023-08-31T16:30:11;1.50;;;0.63;;
15102;SDS011;7652;53.584;9.998;2023-08-31T16:33:35;1.13;;;0.63;;
15102;SDS011;7652;53.584;9.998;2023-08-31T16:36:58;1.30;;;0.90;;
15102;SDS011;7652;53.584;9.998;2023-08-31T16:40:20;1.73;;;0.60;;
15102;SDS011;7652;53.584;9.998;2023-08-31T16:43:41;1.33;;;0.73;;
15102;SDS011;7652;53.584;9.998;2023-08-31T16:47:03;2.00;;;0.90;;
15102;SDS011;7652;53.584;9.998;2023-08-31T16:50:28;1.13;;;0.90;;
15102;SDS011;7652;53.584;9.998;2023-08-31T16:53:53;0.90;;;0.73;;
15102;SDS011;7652;53.584;9.998;2023-08-31T16:57:14;0.97;;;0.67;;
15102;SDS011;7652;53.584;9.998;2023-08-31T17:00:36;0.83;;;0.83;;
15102;SDS011;7652;53.584;9.998;2023-08-31T17:03:57;1.53;;;0.80;;
15102;SDS011;7652;53.584;9.998;2023-08-31T17:07:19;1.43;;;1.00;;
15102;SDS011;7652;53.584;9.998;2023-08-31T17:10:42;1.23;;;0.70;;
15102;SDS011;7652;53.584;9.998;2023-08-31T17:14:03;1.03;;;0.83;;
15102;SDS011;7652;53.584;9.998;2023-08-31T17:17:26;2.30;;;0.90;;
15102;SDS011;7652;53.584;9.998;2023-08-31T17:20:50;2.93;;;0.90;;
15102;SDS011;7652;53.584;9.998;2023-08-31T17:24:12;0.93;;;0.70;;
15102;SDS011;7652;53.584;9.998;2023-08-31T17:27:35;2.80;;;1.00;;
15102;SDS011;7652;53.584;9.998;2023-08-31T17:30:56;1.93;;;0.90;;
15102;SDS011;7652;53.584;9.998;2023-08-31T17:34:20;1.77;;;0.70;;
15102;SDS011;7652;53.584;9.998;2023-08-31T17:37:42;2.13;;;0.70;;
15102;SDS011;7652;53.584;9.998;2023-08-31T17:41:04;0.80;;;0.70;;
15102;SDS011;7652;53.584;9.998;2023-08-31T17:44:26;1.50;;;0.73;;
15102;SDS011;7652;53.584;9.998;2023-08-31T17:47:48;0.87;;;0.80;;
15102;SDS011;7652;53.584;9.998;2023-08-31T17:51:10;1.57;;;0.87;;
15102;SDS011;7652;53.584;9.998;2023-08-31T17:54:32;1.20;;;0.70;;
15102;SDS011;7652;53.584;9.998;2023-08-31T17:57:54;1.67;;;1.00;;
15102;SDS011;7652;53.584;9.998;2023-08-31T18:01:17;1.00;;;0.90;;
15102;SDS011;7652;53.584;9.998;2023-08-31T18:04:38;1.20;;;0.87;;
15102;SDS011;7652;53.584;9.998;2023-08-31T18:08:00;1.23;;;0.70;;
15102;SDS011;7652;53.584;9.998;2023-08-31T18:11:21;1.00;;;0.73;;
15102;SDS011;7652;53.584;9.998;2023-08-31T18:14:43;2.17;;;0.93;;
15102;SDS011;7652;53.584;9.998;2023-08-31T18:18:07;0.90;;;0.90;;
15102;SDS011;7652;53.584;9.998;2023-08-31T18:21:28;2.07;;;1.00;;
15102;SDS011;7652;53.584;9.998;2023-08-31T18:24:50;2.23;;;1.37;;
15102;SDS011;7652;53.584;9.998;2023-08-31T18:28:11;1.80;;;1.27;;
15102;SDS011;7652;53.584;9.998;2023-08-31T18:31:34;2.27;;;1.07;;
15102;SDS011;7652;53.584;9.998;2023-08-31T18:35:02;2.23;;;1.07;;
15102;SDS011;7652;53.584;9.998;2023-08-31T18:38:25;1.03;;;0.93;;
15102;SDS011;7652;53.584;9.998;2023-08-31T18:41:47;3.23;;;0.77;;
15102;SDS011;7652;53.584;9.998;2023-08-31T18:45:09;2.03;;;1.07;;
15102;SDS011;7652;53.584;9.998;2023-08-31T18:48:33;1.27;;;0.97;;
15102;SDS011;7652;53.584;9.998;2023-08-31T18:51:56;1.57;;;1.00;;
15102;SDS011;7652;53.584;9.998;2023-08-31T18:55:18;1.77;;;1.10;;
15102;SDS011;7652;53.584;9.998;2023-08-31T18:58:42;1.63;;;0.97;;
15102;SDS011;7652;53.584;9.998;2023-08-31T19:02:04;1.63;;;1.00;;
15102;SDS011;7652;53.584;9.998;2023-08-31T19:05:27;1.93;;;1.10;;
15102;SDS011;7652;53.584;9.998;2023-08-31T19:08:49;1.60;;;1.20;;
15102;SDS011;7652;53.584;9.998;2023-08-31T19:12:12;2.10;;;1.37;;
15102;SDS011;7652;53.584;9.998;2023-08-31T19:15:33;2.17;;;1.10;;
15102;SDS011;7652;53.584;9.998;2023-08-31T19:18:55;1.67;;;1.10;;
15102;SDS011;7652;53.584;9.998;2023-08-31T19:22:16;2.20;;;1.33;;
15102;SDS011;7652;53.584;9.998;2023-08-31T19:25:39;1.83;;;1.27;;
15102;SDS011;7652;53.584;9.998;2023-08-31T19:29:01;2.40;;;1.60;;
15102;SDS011;7652;53.584;9.998;2023-08-31T19:32:23;1.53;;;1.00;;
15102;SDS011;7652;53.584;9.998;2023-08-31T19:35:45;2.30;;;1.40;;
15102;SDS011;7652;53.584;9.998;2023-08-31T19:39:18;2.30;;;1.40;;
15102;SDS011;7652;53.584;9.998;2023-08-31T19:42:40;1.47;;;1.20;;
15102;SDS011;7652;53.584;9.998;2023-08-31T19:46:02;2.97;;;1.30;;
15102;SDS011;7652;53.584;9.998;2023-08-31T19:49:29;2.33;;;1.30;;
15102;SDS011;7652;53.584;9.998;2023-08-31T19:52:51;1.33;;;1.20;;
15102;SDS011;7652;53.584;9.998;2023-08-31T19:56:12;2.67;;;1.67;;
15102;SDS011;7652;53.584;9.998;2023-08-31T19:59:35;3.93;;;1.60;;
15102;SDS011;7652;53.584;9.998;2023-08-31T20:02:57;2.40;;;1.60;;
15102;SDS011;7652;53.584;9.998;2023-08-31T20:06:19;2.43;;;1.50;;
15102;SDS011;7652;53.584;9.998;2023-08-31T20:09:41;2.90;;;1.50;;
15102;SDS011;7652;53.584;9.998;2023-08-31T20:13:03;2.13;;;1.60;;
15102;SDS011;7652;53.584;9.998;2023-08-31T20:16:26;1.50;;;1.40;;
15102;SDS011;7652;53.584;9.998;2023-08-31T20:19:48;1.73;;;1.40;;
15102;SDS011;7652;53.584;9.998;2023-08-31T20:23:10;2.50;;;1.40;;
15102;SDS011;7652;53.584;9.998;2023-08-31T20:26:33;2.17;;;1.30;;
15102;SDS011;7652;53.584;9.998;2023-08-31T20:29:55;1.70;;;1.27;;
15102;SDS011;7652;53.584;9.998;2023-08-31T20:33:18;2.77;;;1.30;;
15102;SDS011;7652;53.584;9.998;2023-08-31T20:36:39;2.03;;;1.37;;
15102;SDS011;7652;53.584;9.998;2023-08-31T20:40:00;2.00;;;1.50;;